sensor_id;sensor_type;location;lat;lon;timestamp;pressure;altitude;pressure_sealevel;temperature
15626;BMP180;7912;51.376;6.126;2023-06-10T00:00:58;101108.00;;;25.90
15626;BMP180;7912;51.376;6.126;2023-06-10T00:03:26;101113.00;;;25.90
15626;BMP180;7912;51.376;6.126;2023-06-10T00:05:54;101118.00;;;25.80
15626;BMP180;7912;51.376;6.126;2023-06-10T00:08:21;101109.00;;;25.80
15626;BMP180;7912;51.376;6.126;2023-06-10T00:10:49;101117.00;;;25.70
15626;BMP180;7912;51.376;6.126;2023-06-10T00:13:16;101114.00;;;25.70
15626;BMP180;7912;51.376;6.126;2023-06-10T00:15:47;101111.00;;;25.60
15626;BMP180;7912;51.376;6.126;2023-06-10T00:18:15;101113.00;;;25.60
15626;BMP180;7912;51.376;6.126;2023-06-10T00:20:43;101115.00;;;25.50
15626;BMP180;7912;51.376;6.126;2023-06-10T00:23:11;101116.00;;;25.50
15626;BMP180;7912;51.376;6.126;2023-06-10T00:25:38;101110.00;;;25.50
15626;BMP180;7912;51.376;6.126;2023-06-10T00:28:06;101115.00;;;25.40
15626;BMP180;7912;51.376;6.126;2023-06-10T00:30:33;101113.00;;;25.40
15626;BMP180;7912;51.376;6.126;2023-06-10T00:33:01;101110.00;;;25.40
15626;BMP180;7912;51.376;6.126;2023-06-10T00:35:28;101105.00;;;25.30
15626;BMP180;7912;51.376;6.126;2023-06-10T00:37:56;101114.00;;;25.30
15626;BMP180;7912;51.376;6.126;2023-06-10T00:40:23;101128.00;;;25.20
15626;BMP180;7912;51.376;6.126;2023-06-10T00:42:50;101117.00;;;25.20
15626;BMP180;7912;51.376;6.126;2023-06-10T00:45:18;101115.00;;;25.20
15626;BMP180;7912;51.376;6.126;2023-06-10T00:47:45;101121.00;;;25.10
15626;BMP180;7912;51.376;6.126;2023-06-10T00:50:13;101124.00;;;25.10
15626;BMP180;7912;51.376;6.126;2023-06-10T00:52:59;101128.00;;;25.00
15626;BMP180;7912;51.376;6.126;2023-06-10T00:59:11;101122.00;;;24.90
15626;BMP180;7912;51.376;6.126;2023-06-10T01:01:39;101119.00;;;24.90
15626;BMP180;7912;51.376;6.126;2023-06-10T01:04:06;101120.00;;;24.80
15626;BMP180;7912;51.376;6.126;2023-06-10T01:10:50;101119.00;;;24.70
15626;BMP180;7912;51.376;6.126;2023-06-10T01:13:19;101126.00;;;24.60
15626;BMP180;7912;51.376;6.126;2023-06-10T01:15:52;101127.00;;;24.60
15626;BMP180;7912;51.376;6.126;2023-06-10T01:18:19;101131.00;;;24.60
15626;BMP180;7912;51.376;6.126;2023-06-10T01:20:47;101126.00;;;24.50
15626;BMP180;7912;51.376;6.126;2023-06-10T01:23:18;101126.00;;;24.50
15626;BMP180;7912;51.376;6.126;2023-06-10T01:26:01;101130.00;;;24.50
15626;BMP180;7912;51.376;6.126;2023-06-10T01:34:13;101136.00;;;24.30
15626;BMP180;7912;51.376;6.126;2023-06-10T01:36:44;101134.00;;;24.20
15626;BMP180;7912;51.376;6.126;2023-06-10T01:39:15;101138.00;;;24.10
15626;BMP180;7912;51.376;6.126;2023-06-10T01:41:44;101127.00;;;24.10
15626;BMP180;7912;51.376;6.126;2023-06-10T01:44:11;101135.00;;;24.00
15626;BMP180;7912;51.376;6.126;2023-06-10T01:46:39;101138.00;;;24.00
15626;BMP180;7912;51.376;6.126;2023-06-10T01:49:06;101133.00;;;24.00
15626;BMP180;7912;51.376;6.126;2023-06-10T01:51:34;101133.00;;;23.90
15626;BMP180;7912;51.376;6.126;2023-06-10T01:54:01;101136.00;;;23.90
15626;BMP180;7912;51.376;6.126;2023-06-10T01:56:29;101123.00;;;23.80
15626;BMP180;7912;51.376;6.126;2023-06-10T01:58:56;101137.00;;;23.80
15626;BMP180;7912;51.376;6.126;2023-06-10T02:01:26;101140.00;;;23.70
15626;BMP180;7912;51.376;6.126;2023-06-10T02:03:53;101131.00;;;23.70
15626;BMP180;7912;51.376;6.126;2023-06-10T02:06:21;101133.00;;;23.60
15626;BMP180;7912;51.376;6.126;2023-06-10T02:08:48;101133.00;;;23.60
15626;BMP180;7912;51.376;6.126;2023-06-10T02:11:16;101137.00;;;23.50
15626;BMP180;7912;51.376;6.126;2023-06-10T02:13:43;101127.00;;;23.50
15626;BMP180;7912;51.376;6.126;2023-06-10T02:16:11;101130.00;;;23.40
15626;BMP180;7912;51.376;6.126;2023-06-10T02:18:41;101142.00;;;23.40
15626;BMP180;7912;51.376;6.126;2023-06-10T02:21:10;101139.00;;;23.40
15626;BMP180;7912;51.376;6.126;2023-06-10T02:23:38;101140.00;;;23.30
15626;BMP180;7912;51.376;6.126;2023-06-10T02:26:05;101145.00;;;23.30
15626;BMP180;7912;51.376;6.126;2023-06-10T02:28:33;101137.00;;;23.20
15626;BMP180;7912;51.376;6.126;2023-06-10T02:31:00;101138.00;;;23.20
15626;BMP180;7912;51.376;6.126;2023-06-10T02:33:27;101145.00;;;23.20
15626;BMP180;7912;51.376;6.126;2023-06-10T02:35:56;101139.00;;;23.10
15626;BMP180;7912;51.376;6.126;2023-06-10T02:38:23;101142.00;;;23.10
15626;BMP180;7912;51.376;6.126;2023-06-10T02:40:51;101151.00;;;23.00
15626;BMP180;7912;51.376;6.126;2023-06-10T02:43:18;101152.00;;;23.00
15626;BMP180;7912;51.376;6.126;2023-06-10T02:45:46;101143.00;;;23.00
15626;BMP180;7912;51.376;6.126;2023-06-10T02:48:13;101150.00;;;23.00
15626;BMP180;7912;51.376;6.126;2023-06-10T02:50:41;101157.00;;;22.90
15626;BMP180;7912;51.376;6.126;2023-06-10T02:53:08;101150.00;;;22.90
15626;BMP180;7912;51.376;6.126;2023-06-10T02:55:36;101149.00;;;22.90
15626;BMP180;7912;51.376;6.126;2023-06-10T02:58:03;101145.00;;;22.80
15626;BMP180;7912;51.376;6.126;2023-06-10T03:00:31;101141.00;;;22.80
15626;BMP180;7912;51.376;6.126;2023-06-10T03:02:58;101147.00;;;22.80
15626;BMP180;7912;51.376;6.126;2023-06-10T03:05:29;101145.00;;;22.70
15626;BMP180;7912;51.376;6.126;2023-06-10T03:07:57;101150.00;;;22.70
15626;BMP180;7912;51.376;6.126;2023-06-10T03:10:24;101149.00;;;22.70
15626;BMP180;7912;51.376;6.126;2023-06-10T03:12:52;101146.00;;;22.60
15626;BMP180;7912;51.376;6.126;2023-06-10T03:15:20;101145.00;;;22.60
15626;BMP180;7912;51.376;6.126;2023-06-10T03:17:48;101150.00;;;22.60
15626;BMP180;7912;51.376;6.126;2023-06-10T03:20:16;101155.00;;;22.60
15626;BMP180;7912;51.376;6.126;2023-06-10T03:22:43;101141.00;;;22.60
15626;BMP180;7912;51.376;6.126;2023-06-10T03:25:14;101152.00;;;22.60
15626;BMP180;7912;51.376;6.126;2023-06-10T03:27:42;101152.00;;;22.50
15626;BMP180;7912;51.376;6.126;2023-06-10T03:30:12;101152.00;;;22.50
15626;BMP180;7912;51.376;6.126;2023-06-10T03:32:40;101160.00;;;22.50
15626;BMP180;7912;51.376;6.126;2023-06-10T03:35:08;101157.00;;;22.50
15626;BMP180;7912;51.376;6.126;2023-06-10T03:37:36;101163.00;;;22.50
15626;BMP180;7912;51.376;6.126;2023-06-10T03:40:04;101158.00;;;22.50
15626;BMP180;7912;51.376;6.126;2023-06-10T03:42:32;101169.00;;;22.50
15626;BMP180;7912;51.376;6.126;2023-06-10T03:45:00;101163.00;;;22.50
15626;BMP180;7912;51.376;6.126;2023-06-10T03:47:37;101162.00;;;22.40
15626;BMP180;7912;51.376;6.126;2023-06-10T03:50:05;101162.00;;;22.40
15626;BMP180;7912;51.376;6.126;2023-06-10T03:52:34;101166.00;;;22.40
15626;BMP180;7912;51.376;6.126;2023-06-10T03:55:01;101176.00;;;22.40
15626;BMP180;7912;51.376;6.126;2023-06-10T03:57:32;101166.00;;;22.40
15626;BMP180;7912;51.376;6.126;2023-06-10T03:59:59;101164.00;;;22.40
15626;BMP180;7912;51.376;6.126;2023-06-10T04:02:27;101173.00;;;22.40
15626;BMP180;7912;51.376;6.126;2023-06-10T04:04:55;101167.00;;;22.40
15626;BMP180;7912;51.376;6.126;2023-06-10T04:07:23;101169.00;;;22.40
15626;BMP180;7912;51.376;6.126;2023-06-10T04:09:50;101164.00;;;22.40
15626;BMP180;7912;51.376;6.126;2023-06-10T04:12:18;101167.00;;;22.40
15626;BMP180;7912;51.376;6.126;2023-06-10T04:14:45;101164.00;;;22.40
15626;BMP180;7912;51.376;6.126;2023-06-10T04:17:12;101164.00;;;22.50
15626;BMP180;7912;51.376;6.126;2023-06-10T04:19:40;101176.00;;;22.50
15626;BMP180;7912;51.376;6.126;2023-06-10T04:22:07;101172.00;;;22.50
15626;BMP180;7912;51.376;6.126;2023-06-10T04:24:34;101183.00;;;22.50
15626;BMP180;7912;51.376;6.126;2023-06-10T04:27:02;101170.00;;;22.50
15626;BMP180;7912;51.376;6.126;2023-06-10T04:29:30;101171.00;;;22.50
15626;BMP180;7912;51.376;6.126;2023-06-10T04:31:57;101170.00;;;22.50
15626;BMP180;7912;51.376;6.126;2023-06-10T04:34:25;101177.00;;;22.50
15626;BMP180;7912;51.376;6.126;2023-06-10T04:36:52;101180.00;;;22.60
15626;BMP180;7912;51.376;6.126;2023-06-10T04:39:20;101185.00;;;22.60
15626;BMP180;7912;51.376;6.126;2023-06-10T04:41:47;101178.00;;;22.60
15626;BMP180;7912;51.376;6.126;2023-06-10T04:44:31;101172.00;;;22.70
15626;BMP180;7912;51.376;6.126;2023-06-10T04:46:58;101176.00;;;22.70
15626;BMP180;7912;51.376;6.126;2023-06-10T04:49:25;101185.00;;;22.80
15626;BMP180;7912;51.376;6.126;2023-06-10T04:51:53;101171.00;;;22.80
15626;BMP180;7912;51.376;6.126;2023-06-10T04:54:20;101178.00;;;22.80
15626;BMP180;7912;51.376;6.126;2023-06-10T04:56:47;101169.00;;;22.90
15626;BMP180;7912;51.376;6.126;2023-06-10T04:59:15;101173.00;;;22.90
15626;BMP180;7912;51.376;6.126;2023-06-10T05:01:45;101175.00;;;23.00
15626;BMP180;7912;51.376;6.126;2023-06-10T05:04:12;101165.00;;;23.00
15626;BMP180;7912;51.376;6.126;2023-06-10T05:06:40;101171.00;;;23.10
15626;BMP180;7912;51.376;6.126;2023-06-10T05:09:07;101170.00;;;23.10
15626;BMP180;7912;51.376;6.126;2023-06-10T05:11:34;101173.00;;;23.20
15626;BMP180;7912;51.376;6.126;2023-06-10T05:14:02;101178.00;;;23.20
15626;BMP180;7912;51.376;6.126;2023-06-10T05:16:29;101184.00;;;23.30
15626;BMP180;7912;51.376;6.126;2023-06-10T05:18:57;101186.00;;;23.30
15626;BMP180;7912;51.376;6.126;2023-06-10T05:21:24;101173.00;;;23.40
15626;BMP180;7912;51.376;6.126;2023-06-10T05:23:52;101169.00;;;23.50
15626;BMP180;7912;51.376;6.126;2023-06-10T05:26:19;101181.00;;;23.50
15626;BMP180;7912;51.376;6.126;2023-06-10T05:28:47;101185.00;;;23.60
15626;BMP180;7912;51.376;6.126;2023-06-10T05:31:14;101176.00;;;23.60
15626;BMP180;7912;51.376;6.126;2023-06-10T05:33:42;101183.00;;;23.70
15626;BMP180;7912;51.376;6.126;2023-06-10T05:36:10;101185.00;;;23.70
15626;BMP180;7912;51.376;6.126;2023-06-10T05:42:47;101185.00;;;23.80
15626;BMP180;7912;51.376;6.126;2023-06-10T05:45:14;101183.00;;;23.90
15626;BMP180;7912;51.376;6.126;2023-06-10T05:47:42;101191.00;;;23.90
15626;BMP180;7912;51.376;6.126;2023-06-10T05:50:10;101186.00;;;24.00
15626;BMP180;7912;51.376;6.126;2023-06-10T05:52:37;101182.00;;;24.10
15626;BMP180;7912;51.376;6.126;2023-06-10T05:55:08;101190.00;;;24.20
15626;BMP180;7912;51.376;6.126;2023-06-10T05:57:37;101190.00;;;24.20
15626;BMP180;7912;51.376;6.126;2023-06-10T06:00:06;101191.00;;;24.30
15626;BMP180;7912;51.376;6.126;2023-06-10T06:02:33;101183.00;;;24.30
15626;BMP180;7912;51.376;6.126;2023-06-10T06:05:01;101182.00;;;24.40
15626;BMP180;7912;51.376;6.126;2023-06-10T06:07:29;101181.00;;;24.50
15626;BMP180;7912;51.376;6.126;2023-06-10T06:09:57;101176.00;;;24.50
15626;BMP180;7912;51.376;6.126;2023-06-10T06:12:24;101170.00;;;24.60
15626;BMP180;7912;51.376;6.126;2023-06-10T06:14:51;101183.00;;;24.70
15626;BMP180;7912;51.376;6.126;2023-06-10T06:17:19;101184.00;;;24.90
15626;BMP180;7912;51.376;6.126;2023-06-10T06:19:46;101178.00;;;25.20
15626;BMP180;7912;51.376;6.126;2023-06-10T06:22:15;101175.00;;;25.50
15626;BMP180;7912;51.376;6.126;2023-06-10T06:24:42;101181.00;;;25.80
15626;BMP180;7912;51.376;6.126;2023-06-10T06:27:09;101180.00;;;26.10
15626;BMP180;7912;51.376;6.126;2023-06-10T06:29:37;101184.00;;;26.50
15626;BMP180;7912;51.376;6.126;2023-06-10T06:32:06;101184.00;;;26.90
15626;BMP180;7912;51.376;6.126;2023-06-10T06:34:33;101187.00;;;27.20
15626;BMP180;7912;51.376;6.126;2023-06-10T06:37:01;101197.00;;;27.40
15626;BMP180;7912;51.376;6.126;2023-06-10T06:39:29;101189.00;;;27.70
15626;BMP180;7912;51.376;6.126;2023-06-10T06:41:57;101188.00;;;28.00
15626;BMP180;7912;51.376;6.126;2023-06-10T06:44:24;101190.00;;;28.20
15626;BMP180;7912;51.376;6.126;2023-06-10T06:46:51;101193.00;;;28.40
15626;BMP180;7912;51.376;6.126;2023-06-10T06:49:19;101203.00;;;28.60
15626;BMP180;7912;51.376;6.126;2023-06-10T06:51:46;101189.00;;;28.70
15626;BMP180;7912;51.376;6.126;2023-06-10T06:54:13;101194.00;;;28.90
15626;BMP180;7912;51.376;6.126;2023-06-10T06:56:41;101188.00;;;29.00
15626;BMP180;7912;51.376;6.126;2023-06-10T06:59:08;101198.00;;;29.20
15626;BMP180;7912;51.376;6.126;2023-06-10T07:01:35;101197.00;;;29.50
15626;BMP180;7912;51.376;6.126;2023-06-10T07:04:03;101196.00;;;29.70
15626;BMP180;7912;51.376;6.126;2023-06-10T07:06:30;101198.00;;;29.90
15626;BMP180;7912;51.376;6.126;2023-06-10T07:09:00;101201.00;;;30.20
15626;BMP180;7912;51.376;6.126;2023-06-10T07:11:28;101200.00;;;30.50
15626;BMP180;7912;51.376;6.126;2023-06-10T07:13:56;101198.00;;;30.80
15626;BMP180;7912;51.376;6.126;2023-06-10T07:16:23;101197.00;;;31.00
15626;BMP180;7912;51.376;6.126;2023-06-10T07:18:52;101203.00;;;31.00
15626;BMP180;7912;51.376;6.126;2023-06-10T07:21:20;101199.00;;;31.10
15626;BMP180;7912;51.376;6.126;2023-06-10T07:23:49;101199.00;;;31.40
15626;BMP180;7912;51.376;6.126;2023-06-10T07:26:22;101198.00;;;31.70
15626;BMP180;7912;51.376;6.126;2023-06-10T07:28:50;101201.00;;;31.80
15626;BMP180;7912;51.376;6.126;2023-06-10T07:31:17;101206.00;;;31.90
15626;BMP180;7912;51.376;6.126;2023-06-10T07:33:46;101204.00;;;31.90
15626;BMP180;7912;51.376;6.126;2023-06-10T07:36:13;101202.00;;;32.00
15626;BMP180;7912;51.376;6.126;2023-06-10T07:38:41;101202.00;;;32.20
15626;BMP180;7912;51.376;6.126;2023-06-10T07:41:09;101199.00;;;32.30
15626;BMP180;7912;51.376;6.126;2023-06-10T07:43:38;101200.00;;;32.40
15626;BMP180;7912;51.376;6.126;2023-06-10T07:46:05;101212.00;;;32.60
15626;BMP180;7912;51.376;6.126;2023-06-10T07:49:10;101207.00;;;32.80
15626;BMP180;7912;51.376;6.126;2023-06-10T07:51:37;101198.00;;;32.90
15626;BMP180;7912;51.376;6.126;2023-06-10T07:54:05;101207.00;;;33.10
15626;BMP180;7912;51.376;6.126;2023-06-10T07:56:32;101191.00;;;33.30
15626;BMP180;7912;51.376;6.126;2023-06-10T07:59:00;101206.00;;;33.60
15626;BMP180;7912;51.376;6.126;2023-06-10T08:01:27;101203.00;;;33.90
15626;BMP180;7912;51.376;6.126;2023-06-10T08:03:54;101196.00;;;34.20
15626;BMP180;7912;51.376;6.126;2023-06-10T08:06:22;101198.00;;;34.50
15626;BMP180;7912;51.376;6.126;2023-06-10T08:08:49;101194.00;;;34.70
15626;BMP180;7912;51.376;6.126;2023-06-10T08:11:18;101200.00;;;34.80
15626;BMP180;7912;51.376;6.126;2023-06-10T08:13:45;101207.00;;;34.80
15626;BMP180;7912;51.376;6.126;2023-06-10T08:16:13;101199.00;;;34.80
15626;BMP180;7912;51.376;6.126;2023-06-10T08:18:40;101206.00;;;34.80
15626;BMP180;7912;51.376;6.126;2023-06-10T08:21:08;101196.00;;;34.90
15626;BMP180;7912;51.376;6.126;2023-06-10T08:23:35;101200.00;;;35.20
15626;BMP180;7912;51.376;6.126;2023-06-10T08:26:02;101198.00;;;35.30
15626;BMP180;7912;51.376;6.126;2023-06-10T08:28:30;101201.00;;;35.30
15626;BMP180;7912;51.376;6.126;2023-06-10T08:30:57;101198.00;;;35.60
15626;BMP180;7912;51.376;6.126;2023-06-10T08:33:25;101201.00;;;35.90
15626;BMP180;7912;51.376;6.126;2023-06-10T08:35:52;101203.00;;;35.90
15626;BMP180;7912;51.376;6.126;2023-06-10T08:38:19;101204.00;;;35.80
15626;BMP180;7912;51.376;6.126;2023-06-10T08:40:47;101202.00;;;36.00
15626;BMP180;7912;51.376;6.126;2023-06-10T08:46:00;101195.00;;;36.40
15626;BMP180;7912;51.376;6.126;2023-06-10T08:48:30;101200.00;;;36.40
15626;BMP180;7912;51.376;6.126;2023-06-10T08:50:59;101207.00;;;36.50
15626;BMP180;7912;51.376;6.126;2023-06-10T08:53:29;101208.00;;;36.70
15626;BMP180;7912;51.376;6.126;2023-06-10T08:56:03;101212.00;;;36.80
15626;BMP180;7912;51.376;6.126;2023-06-10T08:58:33;101209.00;;;36.90
15626;BMP180;7912;51.376;6.126;2023-06-10T09:01:02;101204.00;;;37.00
15626;BMP180;7912;51.376;6.126;2023-06-10T09:03:31;101200.00;;;37.20
15626;BMP180;7912;51.376;6.126;2023-06-10T09:05:59;101192.00;;;37.80
15626;BMP180;7912;51.376;6.126;2023-06-10T09:08:27;101199.00;;;38.10
15626;BMP180;7912;51.376;6.126;2023-06-10T09:10:54;101200.00;;;38.20
15626;BMP180;7912;51.376;6.126;2023-06-10T09:13:24;101209.00;;;38.00
15626;BMP180;7912;51.376;6.126;2023-06-10T09:15:51;101213.00;;;37.90
15626;BMP180;7912;51.376;6.126;2023-06-10T09:18:19;101202.00;;;37.90
15626;BMP180;7912;51.376;6.126;2023-06-10T09:20:47;101198.00;;;38.00
15626;BMP180;7912;51.376;6.126;2023-06-10T09:23:15;101205.00;;;38.10
15626;BMP180;7912;51.376;6.126;2023-06-10T09:25:45;101199.00;;;38.20
15626;BMP180;7912;51.376;6.126;2023-06-10T09:28:15;101209.00;;;38.20
15626;BMP180;7912;51.376;6.126;2023-06-10T09:30:42;101197.00;;;38.30
15626;BMP180;7912;51.376;6.126;2023-06-10T09:33:13;101199.00;;;38.30
15626;BMP180;7912;51.376;6.126;2023-06-10T09:35:51;101195.00;;;38.40
15626;BMP180;7912;51.376;6.126;2023-06-10T09:38:22;101191.00;;;38.40
15626;BMP180;7912;51.376;6.126;2023-06-10T09:40:52;101201.00;;;38.20
15626;BMP180;7912;51.376;6.126;2023-06-10T09:43:20;101198.00;;;38.20
15626;BMP180;7912;51.376;6.126;2023-06-10T09:45:51;101200.00;;;38.20
15626;BMP180;7912;51.376;6.126;2023-06-10T09:48:25;101198.00;;;38.20
15626;BMP180;7912;51.376;6.126;2023-06-10T09:50:57;101190.00;;;38.30
15626;BMP180;7912;51.376;6.126;2023-06-10T09:53:24;101191.00;;;38.60
15626;BMP180;7912;51.376;6.126;2023-06-10T09:55:52;101187.00;;;38.80
15626;BMP180;7912;51.376;6.126;2023-06-10T09:58:35;101187.00;;;38.90
15626;BMP180;7912;51.376;6.126;2023-06-10T10:01:16;101181.00;;;39.20
15626;BMP180;7912;51.376;6.126;2023-06-10T10:03:51;101186.00;;;39.30
15626;BMP180;7912;51.376;6.126;2023-06-10T10:06:20;101181.00;;;39.40
15626;BMP180;7912;51.376;6.126;2023-06-10T10:08:51;101191.00;;;39.30
15626;BMP180;7912;51.376;6.126;2023-06-10T10:11:21;101184.00;;;39.30
15626;BMP180;7912;51.376;6.126;2023-06-10T10:13:53;101186.00;;;39.20
15626;BMP180;7912;51.376;6.126;2023-06-10T10:20:03;101181.00;;;39.50
15626;BMP180;7912;51.376;6.126;2023-06-10T10:22:38;101175.00;;;39.60
15626;BMP180;7912;51.376;6.126;2023-06-10T10:25:17;101175.00;;;39.70
15626;BMP180;7912;51.376;6.126;2023-06-10T10:28:15;101186.00;;;39.60
15626;BMP180;7912;51.376;6.126;2023-06-10T10:30:54;101185.00;;;39.50
15626;BMP180;7912;51.376;6.126;2023-06-10T10:36:22;101178.00;;;39.60
15626;BMP180;7912;51.376;6.126;2023-06-10T10:39:09;101175.00;;;39.60
15626;BMP180;7912;51.376;6.126;2023-06-10T10:41:37;101170.00;;;39.50
15626;BMP180;7912;51.376;6.126;2023-06-10T10:44:09;101169.00;;;39.30
15626;BMP180;7912;51.376;6.126;2023-06-10T10:46:50;101177.00;;;39.20
15626;BMP180;7912;51.376;6.126;2023-06-10T10:49:19;101165.00;;;39.10
15626;BMP180;7912;51.376;6.126;2023-06-10T10:52:01;101172.00;;;39.00
15626;BMP180;7912;51.376;6.126;2023-06-10T10:54:35;101161.00;;;39.00
15626;BMP180;7912;51.376;6.126;2023-06-10T10:57:23;101164.00;;;39.20
15626;BMP180;7912;51.376;6.126;2023-06-10T10:59:55;101166.00;;;39.20
15626;BMP180;7912;51.376;6.126;2023-06-10T11:02:43;101155.00;;;39.20
15626;BMP180;7912;51.376;6.126;2023-06-10T11:05:14;101165.00;;;39.20
15626;BMP180;7912;51.376;6.126;2023-06-10T11:07:54;101153.00;;;39.40
15626;BMP180;7912;51.376;6.126;2023-06-10T11:10:33;101159.00;;;39.50
15626;BMP180;7912;51.376;6.126;2023-06-10T11:13:13;101160.00;;;39.70
15626;BMP180;7912;51.376;6.126;2023-06-10T11:15:49;101166.00;;;39.50
15626;BMP180;7912;51.376;6.126;2023-06-10T11:18:28;101157.00;;;39.60
15626;BMP180;7912;51.376;6.126;2023-06-10T11:21:02;101154.00;;;39.70
15626;BMP180;7912;51.376;6.126;2023-06-10T11:31:49;101151.00;;;39.50
15626;BMP180;7912;51.376;6.126;2023-06-10T11:34:24;101141.00;;;39.70
15626;BMP180;7912;51.376;6.126;2023-06-10T11:36:54;101146.00;;;39.80
15626;BMP180;7912;51.376;6.126;2023-06-10T11:39:23;101139.00;;;40.00
15626;BMP180;7912;51.376;6.126;2023-06-10T11:41:51;101131.00;;;40.40
15626;BMP180;7912;51.376;6.126;2023-06-10T11:44:19;101136.00;;;40.80
15626;BMP180;7912;51.376;6.126;2023-06-10T11:46:50;101128.00;;;41.00
15626;BMP180;7912;51.376;6.126;2023-06-10T11:49:20;101130.00;;;41.00
15626;BMP180;7912;51.376;6.126;2023-06-10T11:51:47;101123.00;;;40.90
15626;BMP180;7912;51.376;6.126;2023-06-10T11:54:19;101125.00;;;40.90
15626;BMP180;7912;51.376;6.126;2023-06-10T11:56:46;101129.00;;;40.80
15626;BMP180;7912;51.376;6.126;2023-06-10T11:59:14;101124.00;;;40.60
15626;BMP180;7912;51.376;6.126;2023-06-10T12:01:44;101117.00;;;40.30
15626;BMP180;7912;51.376;6.126;2023-06-10T12:04:14;101115.00;;;40.20
15626;BMP180;7912;51.376;6.126;2023-06-10T12:06:51;101115.00;;;40.20
15626;BMP180;7912;51.376;6.126;2023-06-10T12:09:28;101125.00;;;40.40
15626;BMP180;7912;51.376;6.126;2023-06-10T12:12:04;101116.00;;;40.30
15626;BMP180;7912;51.376;6.126;2023-06-10T12:14:55;101124.00;;;40.40
15626;BMP180;7912;51.376;6.126;2023-06-10T12:20:04;101107.00;;;40.90
15626;BMP180;7912;51.376;6.126;2023-06-10T12:22:43;101107.00;;;41.20
15626;BMP180;7912;51.376;6.126;2023-06-10T12:25:11;101099.00;;;41.50
15626;BMP180;7912;51.376;6.126;2023-06-10T12:27:55;101102.00;;;41.50
15626;BMP180;7912;51.376;6.126;2023-06-10T12:30:25;101099.00;;;41.30
15626;BMP180;7912;51.376;6.126;2023-06-10T12:32:56;101096.00;;;41.30
15626;BMP180;7912;51.376;6.126;2023-06-10T12:35:27;101102.00;;;41.40
15626;BMP180;7912;51.376;6.126;2023-06-10T12:38:04;101090.00;;;41.20
15626;BMP180;7912;51.376;6.126;2023-06-10T12:40:37;101099.00;;;41.30
15626;BMP180;7912;51.376;6.126;2023-06-10T12:43:07;101100.00;;;41.60
15626;BMP180;7912;51.376;6.126;2023-06-10T12:45:37;101091.00;;;41.80
15626;BMP180;7912;51.376;6.126;2023-06-10T12:48:23;101091.00;;;41.90
15626;BMP180;7912;51.376;6.126;2023-06-10T12:50:56;101083.00;;;41.80
15626;BMP180;7912;51.376;6.126;2023-06-10T12:53:25;101088.00;;;41.50
15626;BMP180;7912;51.376;6.126;2023-06-10T12:55:55;101094.00;;;40.90
15626;BMP180;7912;51.376;6.126;2023-06-10T12:58:25;101108.00;;;40.30
15626;BMP180;7912;51.376;6.126;2023-06-10T13:00:52;101104.00;;;40.20
15626;BMP180;7912;51.376;6.126;2023-06-10T13:03:20;101089.00;;;40.30
15626;BMP180;7912;51.376;6.126;2023-06-10T13:05:48;101104.00;;;40.40
15626;BMP180;7912;51.376;6.126;2023-06-10T13:08:15;101093.00;;;40.50
15626;BMP180;7912;51.376;6.126;2023-06-10T13:10:43;101091.00;;;40.80
15626;BMP180;7912;51.376;6.126;2023-06-10T13:13:10;101082.00;;;41.10
15626;BMP180;7912;51.376;6.126;2023-06-10T13:15:38;101078.00;;;41.50
15626;BMP180;7912;51.376;6.126;2023-06-10T13:18:10;101083.00;;;42.00
15626;BMP180;7912;51.376;6.126;2023-06-10T13:20:37;101073.00;;;42.30
15626;BMP180;7912;51.376;6.126;2023-06-10T13:23:05;101081.00;;;42.40
15626;BMP180;7912;51.376;6.126;2023-06-10T13:25:32;101072.00;;;42.70
15626;BMP180;7912;51.376;6.126;2023-06-10T13:28:00;101065.00;;;43.00
15626;BMP180;7912;51.376;6.126;2023-06-10T13:30:28;101070.00;;;43.40
15626;BMP180;7912;51.376;6.126;2023-06-10T13:32:55;101072.00;;;43.50
15626;BMP180;7912;51.376;6.126;2023-06-10T13:35:25;101072.00;;;42.90
15626;BMP180;7912;51.376;6.126;2023-06-10T13:37:53;101065.00;;;42.10
15626;BMP180;7912;51.376;6.126;2023-06-10T13:40:20;101086.00;;;41.40
15626;BMP180;7912;51.376;6.126;2023-06-10T13:42:48;101069.00;;;41.10
15626;BMP180;7912;51.376;6.126;2023-06-10T13:45:18;101068.00;;;41.20
15626;BMP180;7912;51.376;6.126;2023-06-10T13:47:45;101078.00;;;41.50
15626;BMP180;7912;51.376;6.126;2023-06-10T13:50:12;101075.00;;;41.40
15626;BMP180;7912;51.376;6.126;2023-06-10T13:52:40;101071.00;;;41.40
15626;BMP180;7912;51.376;6.126;2023-06-10T13:55:08;101065.00;;;41.50
15626;BMP180;7912;51.376;6.126;2023-06-10T13:57:36;101058.00;;;41.50
15626;BMP180;7912;51.376;6.126;2023-06-10T14:00:05;101063.00;;;41.50
15626;BMP180;7912;51.376;6.126;2023-06-10T14:02:32;101065.00;;;41.70
15626;BMP180;7912;51.376;6.126;2023-06-10T14:05:00;101062.00;;;41.40
15626;BMP180;7912;51.376;6.126;2023-06-10T14:07:28;101072.00;;;40.70
15626;BMP180;7912;51.376;6.126;2023-06-10T14:09:56;101066.00;;;40.10
15626;BMP180;7912;51.376;6.126;2023-06-10T14:12:23;101073.00;;;39.90
15626;BMP180;7912;51.376;6.126;2023-06-10T14:14:50;101066.00;;;40.00
15626;BMP180;7912;51.376;6.126;2023-06-10T14:17:17;101064.00;;;40.40
15626;BMP180;7912;51.376;6.126;2023-06-10T14:19:45;101060.00;;;40.70
15626;BMP180;7912;51.376;6.126;2023-06-10T14:22:13;101052.00;;;41.00
15626;BMP180;7912;51.376;6.126;2023-06-10T14:24:40;101049.00;;;41.40
15626;BMP180;7912;51.376;6.126;2023-06-10T14:27:07;101049.00;;;41.90
15626;BMP180;7912;51.376;6.126;2023-06-10T14:29:35;101045.00;;;42.30
15626;BMP180;7912;51.376;6.126;2023-06-10T14:32:03;101050.00;;;42.70
15626;BMP180;7912;51.376;6.126;2023-06-10T14:34:35;101046.00;;;43.00
15626;BMP180;7912;51.376;6.126;2023-06-10T14:37:02;101041.00;;;43.10
15626;BMP180;7912;51.376;6.126;2023-06-10T14:39:34;101049.00;;;42.70
15626;BMP180;7912;51.376;6.126;2023-06-10T14:42:05;101051.00;;;42.20
15626;BMP180;7912;51.376;6.126;2023-06-10T14:44:32;101052.00;;;41.60
15626;BMP180;7912;51.376;6.126;2023-06-10T14:47:00;101052.00;;;41.30
15626;BMP180;7912;51.376;6.126;2023-06-10T14:49:28;101048.00;;;41.30
15626;BMP180;7912;51.376;6.126;2023-06-10T14:51:57;101050.00;;;41.30
15626;BMP180;7912;51.376;6.126;2023-06-10T14:54:24;101041.00;;;41.60
15626;BMP180;7912;51.376;6.126;2023-06-10T14:56:52;101039.00;;;42.00
15626;BMP180;7912;51.376;6.126;2023-06-10T14:59:23;101034.00;;;42.40